createdAt,value
2022-08-11T00:02:01.153Z,100355.25
2022-08-11T00:04:37.244Z,100359.88
2022-08-11T00:07:06.899Z,100372.34
2022-08-11T00:09:39.022Z,100363.31
2022-08-11T00:12:16.205Z,100365.34
2022-08-11T00:14:44.588Z,100363.53
2022-08-11T00:17:16.111Z,100366.66
2022-08-11T00:20:13.344Z,100368.72
2022-08-11T00:22:41.836Z,100365.25
2022-08-11T00:25:13.982Z,100360.59
2022-08-11T00:27:43.040Z,100359.09
2022-08-11T00:30:13.584Z,100361.41
2022-08-11T00:32:55.018Z,100359.16
2022-08-11T00:35:51.209Z,100356.81
2022-08-11T00:38:18.972Z,100365.78
2022-08-11T00:41:08.690Z,100348.97
2022-08-11T00:44:01.977Z,100357.53
2022-08-11T00:46:57.567Z,100364.91
2022-08-11T00:49:46.802Z,100360.25
2022-08-11T00:52:53.655Z,100354.38
2022-08-11T00:56:01.373Z,100352.88
2022-08-11T00:58:56.534Z,100363.88
2022-08-11T01:01:37.795Z,100352.53
2022-08-11T01:04:45.316Z,100361.09
2022-08-11T01:08:01.953Z,100350.22
2022-08-11T01:10:49.851Z,100355.53
2022-08-11T01:33:38.986Z,100355.91
2022-08-11T01:36:36.301Z,100350.03
2022-08-11T01:39:59.293Z,100352.31
2022-08-11T01:42:51.215Z,100353.06
2022-08-11T01:45:57.938Z,100355.44
2022-08-11T01:48:53.797Z,100350.34
2022-08-11T01:51:36.526Z,100346.16
2022-08-11T01:54:11.061Z,100346.16
2022-08-11T01:57:31.772Z,100341.09
2022-08-11T02:00:12.298Z,100347.00
2022-08-11T02:03:04.498Z,100344.31
2022-08-11T02:06:34.868Z,100350.19
2022-08-11T02:09:35.210Z,100341.63
2022-08-11T02:12:52.810Z,100343.28
2022-08-11T02:15:39.358Z,100336.28
2022-08-11T02:18:22.020Z,100342.47
2022-08-11T02:21:25.646Z,100340.84
2022-08-11T02:24:04.878Z,100337.72
2022-08-11T02:27:23.098Z,100335.00
2022-08-11T02:30:07.641Z,100329.63
2022-08-11T02:33:24.687Z,100342.59
2022-08-11T02:36:19.747Z,100343.09
2022-08-11T02:39:01.983Z,100346.34
2022-08-11T02:42:31.997Z,100344.94
2022-08-11T02:45:12.279Z,100350.44
2022-08-11T02:48:16.310Z,100355.53
2022-08-11T02:51:22.364Z,100350.19
2022-08-11T02:54:16.905Z,100347.06
2022-08-11T02:56:59.829Z,100353.25
2022-08-11T02:59:59.392Z,100347.00
2022-08-11T03:02:49.788Z,100350.81
2022-08-11T03:05:42.898Z,100353.09
2022-08-11T03:08:32.319Z,100355.81
2022-08-11T03:11:26.571Z,100359.75
2022-08-11T03:14:23.794Z,100355.81
2022-08-11T03:17:05.957Z,100359.34
2022-08-11T03:19:57.225Z,100364.03
2022-08-11T03:22:49.394Z,100362.47
2022-08-11T03:25:55.023Z,100367.16
2022-08-11T03:28:47.259Z,100377.63
2022-08-11T03:32:00.637Z,100364.00
2022-08-11T03:34:31.895Z,100362.41
2022-08-11T03:37:39.268Z,100364.75
2022-08-11T03:40:54.885Z,100368.69
2022-08-11T03:43:39.041Z,100365.25
2022-08-11T03:46:40.221Z,100367.97
2022-08-11T03:49:25.601Z,100375.81
2022-08-11T03:52:27.458Z,100367.66
2022-08-11T03:55:07.567Z,100368.06
2022-08-11T03:57:59.335Z,100369.63
2022-08-11T04:00:58.250Z,100382.06
2022-08-11T04:04:18.734Z,100378.97
2022-08-11T04:07:12.083Z,100381.75
2022-08-11T04:10:17.694Z,100376.69
2022-08-11T04:13:06.398Z,100380.19
2022-08-11T04:16:11.907Z,100378.25
2022-08-11T04:19:30.014Z,100384.50
2022-08-11T04:22:21.233Z,100383.16
2022-08-11T04:25:33.232Z,100384.00
2022-08-11T04:28:50.139Z,100389.88
2022-08-11T04:31:50.397Z,100392.56
2022-08-11T04:34:45.159Z,100399.56
2022-08-11T04:38:06.788Z,100399.50
2022-08-11T04:41:17.211Z,100407.19
2022-08-11T04:44:31.991Z,100413.53
2022-08-11T04:48:04.341Z,100416.06
2022-08-11T04:51:34.537Z,100415.22
2022-08-11T04:54:50.283Z,100412.75
2022-08-11T04:58:08.061Z,100418.84
2022-08-11T05:01:37.175Z,100417.97
2022-08-11T05:05:31.050Z,100411.59
2022-08-11T05:08:18.515Z,100411.47
2022-08-11T05:10:58.095Z,100415.91
2022-08-11T05:13:55.014Z,100416.88
2022-08-11T05:16:51.193Z,100421.22
2022-08-11T05:19:40.366Z,100410.25
2022-08-11T05:22:31.435Z,100415.63
2022-08-11T05:26:45.382Z,100419.00
2022-08-11T05:28:55.591Z,100408.44
2022-08-11T05:31:54.888Z,100402.19
2022-08-11T05:34:50.992Z,100400.56
2022-08-11T05:37:30.663Z,100407.63
2022-08-11T05:40:26.392Z,100417.03
2022-08-11T05:43:32.853Z,100418.19
2022-08-11T05:46:25.965Z,100418.63
2022-08-11T05:49:12.331Z,100415.91
2022-08-11T05:52:05.719Z,100417.06
2022-08-11T05:55:05.975Z,100412.00
2022-08-11T05:57:49.426Z,100415.81
2022-08-11T06:00:20.503Z,100420.06
2022-08-11T06:03:01.379Z,100416.91
2022-08-11T06:05:43.908Z,100414.22
2022-08-11T06:08:15.840Z,100417.69
2022-08-11T06:10:45.561Z,100410.25
2022-08-11T06:13:17.742Z,100414.41
2022-08-11T06:15:52.417Z,100406.63
2022-08-11T06:18:21.050Z,100401.97
2022-08-11T06:20:55.251Z,100410.16
2022-08-11T06:23:32.205Z,100409.41
2022-08-11T06:26:01.412Z,100411.22
2022-08-11T06:28:36.462Z,100410.75
2022-08-11T06:31:25.888Z,100407.13
2022-08-11T06:34:12.334Z,100405.16
2022-08-11T06:38:04.512Z,100406.28
2022-08-11T06:41:22.139Z,100413.50
2022-08-11T06:44:16.402Z,100406.22
2022-08-11T06:46:53.247Z,100403.88
2022-08-11T06:49:50.994Z,100405.75
2022-08-11T06:52:34.744Z,100407.97
2022-08-11T06:55:58.014Z,100406.31
2022-08-11T06:58:51.115Z,100418.84
2022-08-11T07:01:49.726Z,100422.66
2022-08-11T07:04:44.281Z,100417.16
2022-08-11T07:08:32.974Z,100411.66
2022-08-11T07:11:47.275Z,100416.22
2022-08-11T07:14:43.477Z,100416.66
2022-08-11T07:17:17.982Z,100414.69
2022-08-11T07:20:18.316Z,100416.97
2022-08-11T07:23:17.823Z,100414.94
2022-08-11T07:26:11.168Z,100415.56
2022-08-11T07:28:56.341Z,100411.94
2022-08-11T07:31:50.630Z,100415.28
2022-08-11T07:34:38.270Z,100413.13
2022-08-11T07:37:16.230Z,100423.13
2022-08-11T07:39:46.624Z,100412.06
2022-08-11T07:42:19.753Z,100417.47
2022-08-11T07:45:09.049Z,100420.94
2022-08-11T07:47:56.803Z,100418.47
2022-08-11T07:50:43.734Z,100419.91
2022-08-11T07:53:13.257Z,100422.00
2022-08-11T07:55:50.312Z,100418.13
2022-08-11T07:58:45.374Z,100415.41
2022-08-11T08:01:44.606Z,100418.06
2022-08-11T08:04:34.394Z,100411.06
2022-08-11T08:07:23.949Z,100412.41
2022-08-11T08:10:14.211Z,100408.25
2022-08-11T08:13:03.838Z,100417.38
2022-08-11T08:15:50.111Z,100409.91
2022-08-11T08:18:26.625Z,100407.09
2022-08-11T08:21:12.078Z,100407.69
2022-08-11T08:23:46.957Z,100406.38
2022-08-11T08:26:34.976Z,100405.03
2022-08-11T08:29:24.706Z,100406.44
2022-08-11T08:31:53.939Z,100405.47
2022-08-11T08:34:22.899Z,100403.25
2022-08-11T08:36:52.406Z,100406.97
2022-08-11T08:39:22.452Z,100398.16
2022-08-11T08:41:55.084Z,100396.47
2022-08-11T08:44:41.349Z,100392.00
2022-08-11T08:47:42.712Z,100396.81
2022-08-11T08:50:16.881Z,100375.47
2022-08-11T08:52:58.420Z,100389.09
2022-08-11T08:55:29.145Z,100388.31
2022-08-11T08:58:00.747Z,100395.34
2022-08-11T09:00:42.451Z,100383.69
2022-08-11T09:03:38.986Z,100387.28
2022-08-11T09:05:59.787Z,100386.00
2022-08-11T09:08:30.741Z,100379.28
2022-08-11T09:11:17.398Z,100387.56
2022-08-11T09:14:04.896Z,100374.72
2022-08-11T09:16:37.079Z,100386.88
2022-08-11T09:19:05.856Z,100389.03
2022-08-11T09:21:49.307Z,100378.16
2022-08-11T09:24:37.721Z,100378.09
2022-08-11T09:27:07.641Z,100378.28
2022-08-11T09:29:38.112Z,100372.91
2022-08-11T09:32:07.319Z,100367.94
2022-08-11T09:34:37.421Z,100367.94
2022-08-11T09:37:53.778Z,100369.47
2022-08-11T09:40:31.323Z,100371.00
2022-08-11T09:43:23.951Z,100362.94
2022-08-11T09:45:56.040Z,100362.41
2022-08-11T09:48:26.845Z,100368.34
2022-08-11T09:51:01.550Z,100365.41
2022-08-11T09:53:40.699Z,100362.69
2022-08-11T09:56:40.622Z,100366.97
2022-08-11T09:59:09.490Z,100350.16
2022-08-11T10:01:49.272Z,100360.38
2022-08-11T10:04:28.697Z,100359.28
2022-08-11T10:07:04.258Z,100356.22
2022-08-11T10:10:01.263Z,100349.97
2022-08-11T10:12:42.419Z,100345.00
2022-08-11T10:15:30.914Z,100348.22
2022-08-11T10:18:26.762Z,100348.97
2022-08-11T10:21:09.304Z,100331.38
2022-08-11T10:24:01.004Z,100334.56
2022-08-11T10:26:53.653Z,100335.06
2022-08-11T10:29:54.744Z,100335.38
2022-08-11T10:32:59.388Z,100329.91
2022-08-11T10:35:30.689Z,100330.25
2022-08-11T10:38:07.729Z,100315.94
2022-08-11T10:40:45.354Z,100319.75
2022-08-11T10:43:18.800Z,100320.50
2022-08-11T10:46:29.806Z,100321.84
2022-08-11T10:49:00.046Z,100311.50
2022-08-11T10:51:50.760Z,100306.75
2022-08-11T10:54:41.893Z,100300.25
2022-08-11T10:57:28.731Z,100301.19
2022-08-11T10:59:57.993Z,100290.53
2022-08-11T11:02:27.458Z,100289.59
2022-08-11T11:05:10.732Z,100284.75
2022-08-11T11:08:00.333Z,100274.47
2022-08-11T11:10:28.135Z,100280.63
2022-08-11T11:13:17.427Z,100272.47
2022-08-11T11:16:26.259Z,100266.41
2022-08-11T11:19:01.270Z,100274.44
2022-08-11T11:21:29.728Z,100276.59
2022-08-11T11:24:18.092Z,100260.69
2022-08-11T11:27:06.004Z,100267.44
2022-08-11T11:30:04.350Z,100267.66
2022-08-11T11:33:14.326Z,100259.41
2022-08-11T11:36:03.918Z,100251.00
2022-08-11T11:38:31.676Z,100247.34
2022-08-11T11:41:18.687Z,100246.25
2022-08-11T11:43:46.880Z,100244.59
2022-08-11T11:46:15.291Z,100240.78
2022-08-11T11:48:43.383Z,100239.09
2022-08-11T11:51:14.022Z,100232.34
2022-08-11T11:53:47.134Z,100232.94
2022-08-11T11:56:15.774Z,100233.88
2022-08-11T11:59:02.508Z,100232.66
2022-08-11T12:01:34.057Z,100227.59
2022-08-11T12:04:06.150Z,100223.31
2022-08-11T12:06:34.891Z,100222.19
2022-08-11T12:09:06.308Z,100222.50
2022-08-11T12:11:52.411Z,100230.75
2022-08-11T12:14:22.507Z,100232.16
2022-08-11T12:16:50.443Z,100223.84
2022-08-11T12:19:35.500Z,100222.44
2022-08-11T12:22:23.160Z,100228.13
2022-08-11T12:25:09.645Z,100228.75
2022-08-11T12:27:39.300Z,100218.16
2022-08-11T12:30:09.449Z,100219.84
2022-08-11T12:32:40.742Z,100205.59
2022-08-11T12:35:09.661Z,100203.72
2022-08-11T12:38:03.674Z,100207.94
2022-08-11T12:44:05.826Z,100211.66
2022-08-11T12:46:37.868Z,100196.47
2022-08-11T12:49:33.439Z,100196.72
2022-08-11T12:52:15.877Z,100200.19
2022-08-11T12:55:35.036Z,100196.00
2022-08-11T12:58:17.182Z,100196.59
2022-08-11T13:01:04.423Z,100189.19
2022-08-11T13:03:56.693Z,100190.06
2022-08-11T13:06:25.677Z,100193.94
2022-08-11T13:09:00.957Z,100183.50
2022-08-11T13:11:56.910Z,100187.63
2022-08-11T13:14:29.463Z,100192.13
2022-08-11T13:17:16.079Z,100184.72
2022-08-11T13:19:49.600Z,100187.28
2022-08-11T13:22:20.929Z,100177.13
2022-08-11T13:24:50.131Z,100174.03
2022-08-11T13:27:20.808Z,100174.69
2022-08-11T13:29:50.309Z,100178.22
2022-08-11T13:32:22.181Z,100173.41
2022-08-11T13:34:49.815Z,100166.13
2022-08-11T13:37:20.379Z,100165.50
2022-08-11T13:40:10.764Z,100160.38
2022-08-11T13:42:39.821Z,100155.66
2022-08-11T13:45:08.602Z,100159.75
2022-08-11T13:47:39.719Z,100158.19
2022-08-11T13:50:12.605Z,100157.81
2022-08-11T13:52:42.862Z,100149.22
2022-08-11T13:55:45.594Z,100160.59
2022-08-11T13:58:19.092Z,100149.00
2022-08-11T14:00:52.511Z,100147.09
2022-08-11T14:03:27.659Z,100154.88
2022-08-11T14:06:19.544Z,100153.63
2022-08-11T14:08:48.951Z,100145.66
2022-08-11T14:12:23.114Z,100149.28
2022-08-11T14:14:27.839Z,100143.09
2022-08-11T14:16:57.957Z,100145.56
2022-08-11T14:19:28.270Z,100145.78
2022-08-11T14:22:08.186Z,100148.25
2022-08-11T14:24:42.959Z,100136.97
2022-08-11T14:28:30.470Z,100138.81
2022-08-11T14:30:01.857Z,100140.16
2022-08-11T14:32:29.811Z,100141.84
2022-08-11T14:35:00.342Z,100141.75
2022-08-11T14:37:29.193Z,100140.38
2022-08-11T14:40:02.978Z,100137.28
2022-08-11T14:42:50.578Z,100128.81
2022-08-11T14:45:57.830Z,100129.66
2022-08-11T14:48:26.273Z,100134.56
2022-08-11T14:50:54.102Z,100131.81
2022-08-11T14:53:23.521Z,100123.94
2022-08-11T14:56:10.810Z,100127.91
2022-08-11T14:58:42.007Z,100123.97
2022-08-11T15:01:30.574Z,100121.53
2022-08-11T15:04:31.285Z,100128.66
2022-08-11T15:06:48.527Z,100120.59
2022-08-11T15:09:16.782Z,100124.97
2022-08-11T15:12:03.431Z,100124.47
2022-08-11T15:14:50.395Z,100127.50
2022-08-11T15:17:24.212Z,100121.94
2022-08-11T15:20:29.622Z,100114.13
2022-08-11T15:23:16.537Z,100111.59
2022-08-11T15:25:51.146Z,100112.09
2022-08-11T15:28:38.791Z,100108.31
2022-08-11T15:31:25.297Z,100108.56
2022-08-11T15:34:18.366Z,100102.22
2022-08-11T15:37:07.719Z,100100.97
2022-08-11T15:40:23.882Z,100104.22
2022-08-11T15:43:29.218Z,100093.09
2022-08-11T15:46:02.275Z,100101.41
2022-08-11T15:48:33.003Z,100089.75
2022-08-11T15:51:28.463Z,100092.50
2022-08-11T15:54:00.082Z,100086.72
2022-08-11T15:56:31.192Z,100084.69
2022-08-11T15:59:41.978Z,100083.69
2022-08-11T16:02:33.017Z,100075.59
2022-08-11T16:05:07.009Z,100084.69
2022-08-11T16:07:41.032Z,100080.91
2022-08-11T16:10:21.543Z,100082.75
2022-08-11T16:13:06.484Z,100078.94
2022-08-11T16:16:04.110Z,100078.38
2022-08-11T16:18:42.430Z,100080.63
2022-08-11T16:21:35.001Z,100084.91
2022-08-11T16:27:01.280Z,100083.53
2022-08-11T16:27:12.455Z,100081.66
2022-08-11T16:29:47.814Z,100073.47
2022-08-11T16:32:25.754Z,100078.41
2022-08-11T16:35:21.169Z,100077.63
2022-08-11T16:38:10.231Z,100084.78
2022-08-11T16:40:40.032Z,100082.19
2022-08-11T16:43:31.917Z,100083.16
2022-08-11T16:46:18.873Z,100082.19
2022-08-11T16:48:49.942Z,100087.78
2022-08-11T16:51:20.875Z,100089.56
2022-08-11T16:54:05.219Z,100090.75
2022-08-11T16:56:45.691Z,100095.78
2022-08-11T16:59:26.995Z,100084.13
2022-08-11T17:02:08.529Z,100098.00
2022-08-11T17:05:34.174Z,100091.22
2022-08-11T17:08:26.925Z,100095.44
2022-08-11T17:11:20.245Z,100092.91
2022-08-11T17:14:01.738Z,100098.16
2022-08-11T17:16:39.953Z,100097.81
2022-08-11T17:19:12.401Z,100096.38
2022-08-11T17:22:06.041Z,100093.84
2022-08-11T17:24:43.379Z,100092.69
2022-08-11T17:27:16.685Z,100102.63
2022-08-11T17:30:01.520Z,100099.91
2022-08-11T17:33:03.860Z,100102.13
2022-08-11T17:35:41.684Z,100104.16
2022-08-11T17:38:23.994Z,100101.00
2022-08-11T17:41:23.227Z,100104.88
2022-08-11T17:44:13.215Z,100100.41
2022-08-11T17:47:05.685Z,100102.97
2022-08-11T17:49:38.083Z,100108.56
2022-08-11T17:52:33.363Z,100111.19
2022-08-11T17:55:52.487Z,100106.78
2022-08-11T17:58:28.925Z,100109.03
2022-08-11T18:01:03.197Z,100106.09
2022-08-11T18:03:41.900Z,100113.22
2022-08-11T18:06:32.581Z,100110.72
2022-08-11T18:09:26.585Z,100116.00
2022-08-11T18:12:15.199Z,100108.00
2022-08-11T18:15:06.589Z,100112.47
2022-08-11T18:17:55.675Z,100114.06
2022-08-11T18:20:42.361Z,100121.03
2022-08-11T18:23:46.075Z,100125.38
2022-08-11T18:26:39.194Z,100127.59
2022-08-11T18:29:27.230Z,100130.94
2022-08-11T18:32:21.282Z,100130.75
2022-08-11T18:35:11.826Z,100136.38
2022-08-11T18:38:05.872Z,100140.75
2022-08-11T18:40:55.412Z,100148.56
2022-08-11T18:43:45.481Z,100140.38
2022-08-11T18:46:35.045Z,100142.28
2022-08-11T18:50:02.410Z,100151.06
2022-08-11T18:52:49.105Z,100155.25
2022-08-11T18:55:37.869Z,100163.16
2022-08-11T18:58:29.381Z,100164.16
2022-08-11T19:01:19.178Z,100164.16
2022-08-11T19:04:11.792Z,100167.84
2022-08-11T19:07:08.553Z,100170.06
2022-08-11T19:10:00.536Z,100167.78
2022-08-11T19:12:57.226Z,100167.09
2022-08-11T19:15:44.335Z,100169.19
2022-08-11T19:18:38.219Z,100174.09
2022-08-11T19:21:26.678Z,100176.97
2022-08-11T19:24:16.935Z,100183.00
2022-08-11T19:27:03.945Z,100177.72
2022-08-11T19:30:06.943Z,100181.88
2022-08-11T19:32:59.461Z,100184.41
2022-08-11T19:35:47.054Z,100179.53
2022-08-11T19:38:34.996Z,100178.00
2022-08-11T19:41:56.182Z,100182.03
2022-08-11T19:44:29.655Z,100185.13
2022-08-11T19:47:17.397Z,100183.69
2022-08-11T19:50:05.180Z,100182.91
2022-08-11T19:52:52.946Z,100190.69
2022-08-11T19:55:40.393Z,100182.16
2022-08-11T19:58:27.010Z,100182.25
2022-08-11T20:01:13.323Z,100184.03
2022-08-11T20:03:59.512Z,100175.69
2022-08-11T20:06:47.347Z,100180.31
2022-08-11T20:10:04.906Z,100174.84
2022-08-11T20:12:45.587Z,100178.44
2022-08-11T20:15:33.498Z,100169.88
2022-08-11T20:18:20.988Z,100174.25
2022-08-11T20:21:24.194Z,100172.72
2022-08-11T20:24:18.744Z,100173.16
2022-08-11T20:27:06.288Z,100172.13
2022-08-11T20:30:07.274Z,100173.41
2022-08-11T20:32:54.516Z,100177.38
2022-08-11T20:35:42.209Z,100173.19
2022-08-11T20:38:30.189Z,100169.09
2022-08-11T20:41:17.020Z,100173.47
2022-08-11T20:44:09.107Z,100166.53
2022-08-11T20:46:58.110Z,100179.22
2022-08-11T20:49:53.804Z,100170.47
2022-08-11T20:52:48.055Z,100172.03
2022-08-11T20:55:51.748Z,100177.50
2022-08-11T20:59:13.341Z,100177.91
2022-08-11T21:01:51.962Z,100177.91
2022-08-11T21:04:54.390Z,100176.81
2022-08-11T21:07:55.200Z,100170.66
2022-08-11T21:10:51.418Z,100175.84
2022-08-11T21:13:42.854Z,100167.41
2022-08-11T21:16:42.776Z,100174.91
2022-08-11T21:19:59.798Z,100168.44
2022-08-11T21:23:24.381Z,100170.97
2022-08-11T21:26:20.907Z,100172.28
2022-08-11T21:29:08.930Z,100164.50
2022-08-11T21:31:55.719Z,100166.59
2022-08-11T21:34:43.606Z,100166.78
2022-08-11T21:37:31.317Z,100171.81
2022-08-11T21:40:18.910Z,100176.25
2022-08-11T21:43:08.503Z,100176.25
2022-08-11T21:45:57.903Z,100178.63
2022-08-11T21:48:46.971Z,100169.25
2022-08-11T21:51:33.753Z,100170.78
2022-08-11T21:54:21.796Z,100186.34
2022-08-11T21:57:11.464Z,100176.94
2022-08-11T22:00:20.138Z,100174.31
2022-08-11T22:03:10.504Z,100189.91
2022-08-11T22:06:00.010Z,100187.19
2022-08-11T22:08:48.091Z,100181.66
2022-08-11T22:11:35.775Z,100188.22
2022-08-11T22:14:24.130Z,100193.19
2022-08-11T22:17:10.096Z,100183.88
2022-08-11T22:20:00.685Z,100192.84
2022-08-11T22:22:51.959Z,100189.78
2022-08-11T22:25:53.762Z,100200.31
2022-08-11T22:28:46.061Z,100198.31
2022-08-11T22:31:33.076Z,100197.13
2022-08-11T22:34:20.165Z,100199.50
2022-08-11T22:37:07.867Z,100186.25
2022-08-11T22:39:59.857Z,100193.34
2022-08-11T22:42:50.967Z,100191.13
2022-08-11T22:45:38.905Z,100186.50
2022-08-11T22:48:27.900Z,100186.59
2022-08-11T22:51:16.037Z,100174.13
2022-08-11T22:54:03.855Z,100173.47
2022-08-11T22:56:51.076Z,100179.00
2022-08-11T22:59:39.768Z,100173.63
2022-08-11T23:02:26.453Z,100176.84
2022-08-11T23:05:13.519Z,100179.22
2022-08-11T23:08:00.921Z,100172.22
2022-08-11T23:10:48.237Z,100170.59
2022-08-11T23:13:34.809Z,100167.44
2022-08-11T23:16:21.966Z,100175.22
2022-08-11T23:19:08.590Z,100166.59
2022-08-11T23:21:55.889Z,100172.75
2022-08-11T23:24:44.246Z,100169.09
2022-08-11T23:27:32.359Z,100165.53
2022-08-11T23:30:20.066Z,100158.47
2022-08-11T23:33:15.096Z,100168.66
2022-08-11T23:36:07.876Z,100168.34
2022-08-11T23:38:55.032Z,100167.66
2022-08-11T23:41:41.226Z,100161.13
2022-08-11T23:44:28.414Z,100161.28
2022-08-11T23:47:20.222Z,100158.72
2022-08-11T23:50:07.031Z,100154.91
2022-08-11T23:52:54.353Z,100169.06
2022-08-11T23:55:40.937Z,100166.06
2022-08-11T23:58:27.937Z,100158.38
